sensor_id;sensor_type;location;lat;lon;timestamp;pressure;altitude;pressure_sealevel;temperature;humidity
50103;BME280;35993;52.604;10.078;2023-03-01T00:00:53;102746.63;;;-2.23;98.98
50103;BME280;35993;52.604;10.078;2023-03-01T00:03:19;102745.88;;;-2.25;99.00
50103;BME280;35993;52.604;10.078;2023-03-01T00:05:45;102744.22;;;-2.27;99.11
50103;BME280;35993;52.604;10.078;2023-03-01T00:08:12;102741.81;;;-2.32;98.51
50103;BME280;35993;52.604;10.078;2023-03-01T00:10:37;102742.41;;;-2.43;99.08
50103;BME280;35993;52.604;10.078;2023-03-01T00:13:03;102740.75;;;-2.45;99.95
50103;BME280;35993;52.604;10.078;2023-03-01T00:15:33;102744.03;;;-2.40;100.00
50103;BME280;35993;52.604;10.078;2023-03-01T00:18:00;102737.06;;;-2.43;100.00
50103;BME280;35993;52.604;10.078;2023-03-01T00:20:26;102737.75;;;-2.39;100.00
50103;BME280;35993;52.604;10.078;2023-03-01T00:22:51;102733.13;;;-2.36;100.00
50103;BME280;35993;52.604;10.078;2023-03-01T00:25:17;102738.34;;;-2.34;100.00
50103;BME280;35993;52.604;10.078;2023-03-01T00:27:42;102736.91;;;-2.40;100.00
50103;BME280;35993;52.604;10.078;2023-03-01T00:30:08;102736.28;;;-2.45;100.00
50103;BME280;35993;52.604;10.078;2023-03-01T00:32:33;102737.53;;;-2.52;100.00
50103;BME280;35993;52.604;10.078;2023-03-01T00:34:59;102736.16;;;-2.59;100.00
50103;BME280;35993;52.604;10.078;2023-03-01T00:37:25;102742.25;;;-2.57;100.00
50103;BME280;35993;52.604;10.078;2023-03-01T00:39:50;102743.19;;;-2.58;100.00
50103;BME280;35993;52.604;10.078;2023-03-01T00:42:16;102739.66;;;-2.59;100.00
50103;BME280;35993;52.604;10.078;2023-03-01T00:44:42;102732.31;;;-2.54;100.00
50103;BME280;35993;52.604;10.078;2023-03-01T00:47:08;102737.09;;;-2.60;99.81
50103;BME280;35993;52.604;10.078;2023-03-01T00:49:34;102738.25;;;-2.66;100.00
50103;BME280;35993;52.604;10.078;2023-03-01T00:52:00;102746.41;;;-2.69;100.00
50103;BME280;35993;52.604;10.078;2023-03-01T00:54:25;102742.91;;;-2.70;100.00
50103;BME280;35993;52.604;10.078;2023-03-01T00:56:51;102743.97;;;-2.74;100.00
50103;BME280;35993;52.604;10.078;2023-03-01T00:59:16;102742.81;;;-2.68;100.00
50103;BME280;35993;52.604;10.078;2023-03-01T01:01:42;102732.50;;;-2.74;100.00
50103;BME280;35993;52.604;10.078;2023-03-01T01:04:11;102727.28;;;-2.76;100.00
50103;BME280;35993;52.604;10.078;2023-03-01T01:06:44;102733.28;;;-2.72;100.00
50103;BME280;35993;52.604;10.078;2023-03-01T01:09:13;102722.81;;;-2.75;100.00
50103;BME280;35993;52.604;10.078;2023-03-01T01:11:47;102718.50;;;-2.78;100.00
50103;BME280;35993;52.604;10.078;2023-03-01T01:14:14;102723.81;;;-2.78;100.00
50103;BME280;35993;52.604;10.078;2023-03-01T01:16:40;102719.28;;;-2.76;100.00
50103;BME280;35993;52.604;10.078;2023-03-01T01:19:06;102718.50;;;-2.78;99.98
50103;BME280;35993;52.604;10.078;2023-03-01T01:21:32;102718.69;;;-2.81;99.87
50103;BME280;35993;52.604;10.078;2023-03-01T01:23:58;102721.56;;;-2.86;99.28
50103;BME280;35993;52.604;10.078;2023-03-01T01:26:26;102718.06;;;-2.86;100.00
50103;BME280;35993;52.604;10.078;2023-03-01T01:28:52;102717.34;;;-2.90;99.81
50103;BME280;35993;52.604;10.078;2023-03-01T01:31:18;102709.59;;;-2.94;100.00
50103;BME280;35993;52.604;10.078;2023-03-01T01:33:45;102715.09;;;-2.98;100.00
50103;BME280;35993;52.604;10.078;2023-03-01T01:36:11;102712.84;;;-3.05;100.00
50103;BME280;35993;52.604;10.078;2023-03-01T01:38:37;102714.06;;;-3.13;100.00
50103;BME280;35993;52.604;10.078;2023-03-01T01:41:05;102713.28;;;-3.15;100.00
50103;BME280;35993;52.604;10.078;2023-03-01T01:43:35;102711.50;;;-3.14;100.00
50103;BME280;35993;52.604;10.078;2023-03-01T01:46:04;102710.47;;;-3.11;100.00
50103;BME280;35993;52.604;10.078;2023-03-01T01:48:41;102711.94;;;-3.06;100.00
50103;BME280;35993;52.604;10.078;2023-03-01T01:51:13;102695.78;;;-3.01;100.00
50103;BME280;35993;52.604;10.078;2023-03-01T01:53:43;102701.28;;;-3.04;100.00
50103;BME280;35993;52.604;10.078;2023-03-01T01:56:11;102705.63;;;-3.03;100.00
50103;BME280;35993;52.604;10.078;2023-03-01T01:58:40;102707.13;;;-3.15;100.00
50103;BME280;35993;52.604;10.078;2023-03-01T02:01:07;102700.94;;;-3.16;100.00
50103;BME280;35993;52.604;10.078;2023-03-01T02:03:35;102703.66;;;-3.17;100.00
50103;BME280;35993;52.604;10.078;2023-03-01T02:06:17;102702.81;;;-3.18;100.00
50103;BME280;35993;52.604;10.078;2023-03-01T02:08:44;102702.19;;;-3.23;100.00
50103;BME280;35993;52.604;10.078;2023-03-01T02:11:12;102699.69;;;-3.26;100.00
50103;BME280;35993;52.604;10.078;2023-03-01T02:13:40;102703.69;;;-3.35;100.00
50103;BME280;35993;52.604;10.078;2023-03-01T02:16:12;102689.69;;;-3.38;100.00
50103;BME280;35993;52.604;10.078;2023-03-01T02:18:41;102686.66;;;-3.31;100.00
50103;BME280;35993;52.604;10.078;2023-03-01T02:21:42;102684.00;;;-3.31;100.00
50103;BME280;35993;52.604;10.078;2023-03-01T02:27:06;102686.88;;;-3.35;100.00
50103;BME280;35993;52.604;10.078;2023-03-01T02:29:33;102692.34;;;-3.38;100.00
50103;BME280;35993;52.604;10.078;2023-03-01T02:32:02;102693.97;;;-3.36;100.00
50103;BME280;35993;52.604;10.078;2023-03-01T02:34:30;102687.75;;;-3.35;100.00
50103;BME280;35993;52.604;10.078;2023-03-01T02:37:00;102678.22;;;-3.39;100.00
50103;BME280;35993;52.604;10.078;2023-03-01T02:39:42;102677.34;;;-3.39;100.00
50103;BME280;35993;52.604;10.078;2023-03-01T02:42:13;102681.94;;;-3.43;100.00
50103;BME280;35993;52.604;10.078;2023-03-01T02:44:40;102672.59;;;-3.50;100.00
50103;BME280;35993;52.604;10.078;2023-03-01T02:47:05;102672.41;;;-3.47;100.00
50103;BME280;35993;52.604;10.078;2023-03-01T02:49:34;102660.47;;;-3.38;100.00
50103;BME280;35993;52.604;10.078;2023-03-01T02:54:55;102653.84;;;-3.30;100.00
50103;BME280;35993;52.604;10.078;2023-03-01T02:57:23;102644.06;;;-3.29;100.00
50103;BME280;35993;52.604;10.078;2023-03-01T02:59:51;102636.56;;;-3.38;100.00
50103;BME280;35993;52.604;10.078;2023-03-01T03:02:21;102629.53;;;-3.39;100.00
50103;BME280;35993;52.604;10.078;2023-03-01T03:05:14;102626.66;;;-3.35;100.00
50103;BME280;35993;52.604;10.078;2023-03-01T03:07:43;102619.53;;;-3.34;100.00
50103;BME280;35993;52.604;10.078;2023-03-01T03:10:12;102618.81;;;-3.38;100.00
50103;BME280;35993;52.604;10.078;2023-03-01T03:12:39;102618.69;;;-3.35;100.00
50103;BME280;35993;52.604;10.078;2023-03-01T03:15:07;102619.84;;;-3.40;100.00
50103;BME280;35993;52.604;10.078;2023-03-01T03:17:38;102616.13;;;-3.54;100.00
50103;BME280;35993;52.604;10.078;2023-03-01T03:20:06;102619.00;;;-3.41;100.00
50103;BME280;35993;52.604;10.078;2023-03-01T03:22:37;102616.34;;;-3.41;100.00
50103;BME280;35993;52.604;10.078;2023-03-01T03:25:03;102627.09;;;-3.44;100.00
50103;BME280;35993;52.604;10.078;2023-03-01T03:27:28;102628.13;;;-3.47;100.00
50103;BME280;35993;52.604;10.078;2023-03-01T03:29:54;102630.78;;;-3.47;100.00
50103;BME280;35993;52.604;10.078;2023-03-01T03:32:22;102630.09;;;-3.50;100.00
50103;BME280;35993;52.604;10.078;2023-03-01T03:34:48;102627.50;;;-3.52;100.00
50103;BME280;35993;52.604;10.078;2023-03-01T03:37:14;102624.00;;;-3.52;100.00
50103;BME280;35993;52.604;10.078;2023-03-01T03:40:00;102631.03;;;-3.51;100.00
50103;BME280;35993;52.604;10.078;2023-03-01T03:42:25;102630.94;;;-3.50;100.00
50103;BME280;35993;52.604;10.078;2023-03-01T03:44:51;102621.13;;;-3.48;100.00
50103;BME280;35993;52.604;10.078;2023-03-01T03:47:16;102624.28;;;-3.58;100.00
50103;BME280;35993;52.604;10.078;2023-03-01T03:49:42;102626.88;;;-3.57;100.00
50103;BME280;35993;52.604;10.078;2023-03-01T03:52:08;102622.19;;;-3.52;100.00
50103;BME280;35993;52.604;10.078;2023-03-01T03:54:41;102617.97;;;-3.56;100.00
50103;BME280;35993;52.604;10.078;2023-03-01T03:57:07;102623.38;;;-3.57;100.00
50103;BME280;35993;52.604;10.078;2023-03-01T03:59:32;102617.22;;;-3.58;100.00
50103;BME280;35993;52.604;10.078;2023-03-01T04:01:58;102622.81;;;-3.64;100.00
50103;BME280;35993;52.604;10.078;2023-03-01T04:04:24;102632.81;;;-3.69;100.00
50103;BME280;35993;52.604;10.078;2023-03-01T04:06:49;102632.91;;;-3.71;100.00
50103;BME280;35993;52.604;10.078;2023-03-01T04:09:15;102629.44;;;-3.73;100.00
50103;BME280;35993;52.604;10.078;2023-03-01T04:11:40;102639.19;;;-3.73;100.00
50103;BME280;35993;52.604;10.078;2023-03-01T04:14:06;102633.56;;;-3.85;100.00
50103;BME280;35993;52.604;10.078;2023-03-01T04:16:31;102637.28;;;-3.89;100.00
50103;BME280;35993;52.604;10.078;2023-03-01T04:18:57;102633.88;;;-3.91;100.00
50103;BME280;35993;52.604;10.078;2023-03-01T04:21:25;102633.25;;;-3.96;100.00
50103;BME280;35993;52.604;10.078;2023-03-01T04:23:50;102636.75;;;-3.96;100.00
50103;BME280;35993;52.604;10.078;2023-03-01T04:26:18;102629.94;;;-4.01;100.00
50103;BME280;35993;52.604;10.078;2023-03-01T04:28:45;102632.81;;;-4.06;100.00
50103;BME280;35993;52.604;10.078;2023-03-01T04:31:14;102635.38;;;-4.04;100.00
50103;BME280;35993;52.604;10.078;2023-03-01T04:33:46;102634.38;;;-4.02;100.00
50103;BME280;35993;52.604;10.078;2023-03-01T04:36:12;102638.69;;;-3.99;100.00
50103;BME280;35993;52.604;10.078;2023-03-01T04:38:39;102639.69;;;-4.02;100.00
50103;BME280;35993;52.604;10.078;2023-03-01T04:41:07;102638.84;;;-4.02;100.00
50103;BME280;35993;52.604;10.078;2023-03-01T04:43:34;102632.69;;;-4.03;100.00
50103;BME280;35993;52.604;10.078;2023-03-01T04:46:04;102635.97;;;-3.98;100.00
50103;BME280;35993;52.604;10.078;2023-03-01T04:48:32;102630.66;;;-3.98;100.00
50103;BME280;35993;52.604;10.078;2023-03-01T04:50:59;102634.16;;;-3.97;100.00
50103;BME280;35993;52.604;10.078;2023-03-01T04:53:25;102637.75;;;-3.98;100.00
50103;BME280;35993;52.604;10.078;2023-03-01T04:55:50;102633.44;;;-4.01;100.00
50103;BME280;35993;52.604;10.078;2023-03-01T04:58:16;102625.66;;;-4.04;100.00
50103;BME280;35993;52.604;10.078;2023-03-01T05:00:41;102624.78;;;-4.04;100.00
50103;BME280;35993;52.604;10.078;2023-03-01T05:03:08;102617.97;;;-4.10;100.00
50103;BME280;35993;52.604;10.078;2023-03-01T05:05:36;102622.78;;;-4.18;100.00
50103;BME280;35993;52.604;10.078;2023-03-01T05:08:05;102620.13;;;-4.18;100.00
50103;BME280;35993;52.604;10.078;2023-03-01T05:10:33;102610.25;;;-4.15;100.00
50103;BME280;35993;52.604;10.078;2023-03-01T05:13:01;102618.13;;;-4.13;100.00
50103;BME280;35993;52.604;10.078;2023-03-01T05:15:28;102611.16;;;-4.16;100.00
50103;BME280;35993;52.604;10.078;2023-03-01T05:17:56;102615.47;;;-4.13;100.00
50103;BME280;35993;52.604;10.078;2023-03-01T05:20:25;102610.25;;;-4.15;100.00
50103;BME280;35993;52.604;10.078;2023-03-01T05:22:56;102613.81;;;-4.16;100.00
50103;BME280;35993;52.604;10.078;2023-03-01T05:25:22;102616.56;;;-4.17;100.00
50103;BME280;35993;52.604;10.078;2023-03-01T05:27:48;102615.78;;;-4.19;100.00
50103;BME280;35993;52.604;10.078;2023-03-01T05:30:14;102615.78;;;-4.19;100.00
50103;BME280;35993;52.604;10.078;2023-03-01T05:32:48;102609.03;;;-4.26;100.00
50103;BME280;35993;52.604;10.078;2023-03-01T05:35:16;102603.19;;;-4.33;100.00
50103;BME280;35993;52.604;10.078;2023-03-01T05:37:47;102612.88;;;-4.32;100.00
50103;BME280;35993;52.604;10.078;2023-03-01T05:40:16;102613.34;;;-4.24;100.00
50103;BME280;35993;52.604;10.078;2023-03-01T05:42:52;102607.19;;;-4.24;100.00
50103;BME280;35993;52.604;10.078;2023-03-01T05:45:20;102605.38;;;-4.24;100.00
50103;BME280;35993;52.604;10.078;2023-03-01T05:47:47;102608.75;;;-4.20;100.00
50103;BME280;35993;52.604;10.078;2023-03-01T05:50:16;102608.88;;;-4.23;100.00
50103;BME280;35993;52.604;10.078;2023-03-01T05:52:49;102610.13;;;-4.31;100.00
50103;BME280;35993;52.604;10.078;2023-03-01T05:55:17;102606.69;;;-4.33;100.00
50103;BME280;35993;52.604;10.078;2023-03-01T05:57:43;102603.09;;;-4.32;100.00
50103;BME280;35993;52.604;10.078;2023-03-01T06:00:09;102603.81;;;-4.28;100.00
50103;BME280;35993;52.604;10.078;2023-03-01T06:02:39;102612.50;;;-4.24;100.00
50103;BME280;35993;52.604;10.078;2023-03-01T06:05:07;102610.91;;;-4.29;100.00
50103;BME280;35993;52.604;10.078;2023-03-01T06:07:32;102617.22;;;-4.31;100.00
50103;BME280;35993;52.604;10.078;2023-03-01T06:09:58;102618.09;;;-4.31;100.00
50103;BME280;35993;52.604;10.078;2023-03-01T06:12:24;102618.00;;;-4.29;100.00
50103;BME280;35993;52.604;10.078;2023-03-01T06:14:49;102611.06;;;-4.32;100.00
50103;BME280;35993;52.604;10.078;2023-03-01T06:17:15;102614.28;;;-4.25;100.00
50103;BME280;35993;52.604;10.078;2023-03-01T06:19:40;102616.28;;;-4.30;100.00
50103;BME280;35993;52.604;10.078;2023-03-01T06:22:06;102609.34;;;-4.33;100.00
50103;BME280;35993;52.604;10.078;2023-03-01T06:24:32;102615.78;;;-4.38;100.00
50103;BME280;35993;52.604;10.078;2023-03-01T06:26:58;102615.63;;;-4.35;100.00
50103;BME280;35993;52.604;10.078;2023-03-01T06:29:24;102628.63;;;-4.29;100.00
50103;BME280;35993;52.604;10.078;2023-03-01T06:31:49;102617.00;;;-4.26;100.00
50103;BME280;35993;52.604;10.078;2023-03-01T06:34:15;102617.63;;;-4.21;100.00
50103;BME280;35993;52.604;10.078;2023-03-01T06:36:40;102621.84;;;-4.17;100.00
50103;BME280;35993;52.604;10.078;2023-03-01T06:39:06;102618.06;;;-4.12;99.96
50103;BME280;35993;52.604;10.078;2023-03-01T06:41:32;102617.09;;;-4.11;100.00
50103;BME280;35993;52.604;10.078;2023-03-01T06:43:59;102612.69;;;-4.10;100.00
50103;BME280;35993;52.604;10.078;2023-03-01T06:46:25;102614.16;;;-4.04;100.00
50103;BME280;35993;52.604;10.078;2023-03-01T06:48:50;102622.75;;;-3.99;100.00
50103;BME280;35993;52.604;10.078;2023-03-01T06:51:16;102616.44;;;-3.97;100.00
50103;BME280;35993;52.604;10.078;2023-03-01T06:53:41;102610.91;;;-3.92;100.00
50103;BME280;35993;52.604;10.078;2023-03-01T06:56:07;102612.34;;;-3.85;100.00
50103;BME280;35993;52.604;10.078;2023-03-01T06:58:32;102618.03;;;-3.75;100.00
50103;BME280;35993;52.604;10.078;2023-03-01T07:00:58;102615.78;;;-3.65;100.00
50103;BME280;35993;52.604;10.078;2023-03-01T07:03:23;102606.00;;;-3.65;100.00
50103;BME280;35993;52.604;10.078;2023-03-01T07:05:49;102602.97;;;-3.57;100.00
50103;BME280;35993;52.604;10.078;2023-03-01T07:08:18;102602.97;;;-3.57;100.00
50103;BME280;35993;52.604;10.078;2023-03-01T07:10:43;102603.75;;;-3.55;100.00
50103;BME280;35993;52.604;10.078;2023-03-01T07:13:09;102606.19;;;-3.50;100.00
50103;BME280;35993;52.604;10.078;2023-03-01T07:15:35;102608.47;;;-3.42;100.00
50103;BME280;35993;52.604;10.078;2023-03-01T07:18:01;102611.66;;;-3.36;100.00
50103;BME280;35993;52.604;10.078;2023-03-01T07:20:26;102606.03;;;-3.30;100.00
50103;BME280;35993;52.604;10.078;2023-03-01T07:22:52;102608.28;;;-3.22;100.00
50103;BME280;35993;52.604;10.078;2023-03-01T07:25:18;102602.78;;;-3.19;100.00
50103;BME280;35993;52.604;10.078;2023-03-01T07:27:49;102604.59;;;-3.19;100.00
50103;BME280;35993;52.604;10.078;2023-03-01T07:30:14;102599.59;;;-3.08;100.00
50103;BME280;35993;52.604;10.078;2023-03-01T07:32:40;102603.63;;;-3.01;100.00
50103;BME280;35993;52.604;10.078;2023-03-01T07:35:06;102601.53;;;-2.94;100.00
50103;BME280;35993;52.604;10.078;2023-03-01T07:37:31;102598.59;;;-2.89;100.00
50103;BME280;35993;52.604;10.078;2023-03-01T07:39:57;102603.16;;;-2.75;100.00
50103;BME280;35993;52.604;10.078;2023-03-01T07:42:22;102610.91;;;-2.71;100.00
50103;BME280;35993;52.604;10.078;2023-03-01T07:44:48;102616.66;;;-2.63;100.00
50103;BME280;35993;52.604;10.078;2023-03-01T07:47:14;102611.00;;;-2.56;100.00
50103;BME280;35993;52.604;10.078;2023-03-01T07:49:39;102609.56;;;-2.46;100.00
50103;BME280;35993;52.604;10.078;2023-03-01T07:52:04;102603.66;;;-2.35;100.00
50103;BME280;35993;52.604;10.078;2023-03-01T07:54:30;102603.38;;;-2.31;100.00
50103;BME280;35993;52.604;10.078;2023-03-01T07:56:56;102605.50;;;-2.21;100.00
50103;BME280;35993;52.604;10.078;2023-03-01T07:59:22;102609.66;;;-2.16;100.00
50103;BME280;35993;52.604;10.078;2023-03-01T08:01:55;102608.28;;;-2.07;100.00
50103;BME280;35993;52.604;10.078;2023-03-01T08:04:21;102603.34;;;-1.99;100.00
50103;BME280;35993;52.604;10.078;2023-03-01T08:06:46;102601.38;;;-1.95;100.00
50103;BME280;35993;52.604;10.078;2023-03-01T08:09:12;102597.44;;;-1.88;100.00
50103;BME280;35993;52.604;10.078;2023-03-01T08:11:38;102601.34;;;-1.79;99.86
50103;BME280;35993;52.604;10.078;2023-03-01T08:14:04;102596.63;;;-1.74;99.68
50103;BME280;35993;52.604;10.078;2023-03-01T08:16:29;102599.59;;;-1.64;99.43
50103;BME280;35993;52.604;10.078;2023-03-01T08:18:55;102591.72;;;-1.51;99.14
50103;BME280;35993;52.604;10.078;2023-03-01T08:21:22;102584.03;;;-1.41;98.44
50103;BME280;35993;52.604;10.078;2023-03-01T08:23:47;102586.44;;;-1.37;98.45
50103;BME280;35993;52.604;10.078;2023-03-01T08:26:15;102583.38;;;-1.30;98.88
50103;BME280;35993;52.604;10.078;2023-03-01T08:28:42;102586.09;;;-1.16;98.43
50103;BME280;35993;52.604;10.078;2023-03-01T08:31:22;102575.53;;;-1.18;97.97
50103;BME280;35993;52.604;10.078;2023-03-01T08:33:49;102580.19;;;-1.07;97.86
50103;BME280;35993;52.604;10.078;2023-03-01T08:36:21;102588.16;;;-0.92;98.04
50103;BME280;35993;52.604;10.078;2023-03-01T08:38:47;102579.13;;;-0.90;98.13
50103;BME280;35993;52.604;10.078;2023-03-01T08:41:13;102585.53;;;-0.78;98.17
50103;BME280;35993;52.604;10.078;2023-03-01T08:43:39;102587.41;;;-0.66;97.86
50103;BME280;35993;52.604;10.078;2023-03-01T08:46:05;102587.72;;;-0.70;97.46
50103;BME280;35993;52.604;10.078;2023-03-01T08:48:31;102583.69;;;-0.63;97.75
50103;BME280;35993;52.604;10.078;2023-03-01T08:50:56;102585.69;;;-0.52;97.86
50103;BME280;35993;52.604;10.078;2023-03-01T08:53:22;102589.16;;;-0.37;98.00
50103;BME280;35993;52.604;10.078;2023-03-01T08:55:47;102588.25;;;-0.23;97.62
50103;BME280;35993;52.604;10.078;2023-03-01T08:58:13;102583.75;;;-0.08;96.96
50103;BME280;35993;52.604;10.078;2023-03-01T09:00:39;102583.22;;;-0.01;95.79
50103;BME280;35993;52.604;10.078;2023-03-01T09:03:05;102585.50;;;0.06;95.00
50103;BME280;35993;52.604;10.078;2023-03-01T09:05:32;102584.69;;;0.18;94.83
50103;BME280;35993;52.604;10.078;2023-03-01T09:07:58;102578.72;;;0.27;94.48
50103;BME280;35993;52.604;10.078;2023-03-01T09:10:24;102577.16;;;0.38;93.89
50103;BME280;35993;52.604;10.078;2023-03-01T09:12:50;102576.72;;;0.44;93.40
50103;BME280;35993;52.604;10.078;2023-03-01T09:15:16;102583.88;;;0.43;92.55
50103;BME280;35993;52.604;10.078;2023-03-01T09:17:42;102581.97;;;0.58;92.69
50103;BME280;35993;52.604;10.078;2023-03-01T09:20:08;102583.06;;;0.69;92.47
50103;BME280;35993;52.604;10.078;2023-03-01T09:22:33;102571.72;;;0.78;91.73
50103;BME280;35993;52.604;10.078;2023-03-01T09:25:00;102572.25;;;0.83;90.51
50103;BME280;35993;52.604;10.078;2023-03-01T09:27:26;102567.25;;;0.91;90.68
50103;BME280;35993;52.604;10.078;2023-03-01T09:29:51;102570.44;;;0.96;90.22
50103;BME280;35993;52.604;10.078;2023-03-01T09:32:17;102563.06;;;1.13;89.55
50103;BME280;35993;52.604;10.078;2023-03-01T09:34:42;102571.91;;;1.26;88.76
50103;BME280;35993;52.604;10.078;2023-03-01T09:37:26;102574.25;;;1.31;87.20
50103;BME280;35993;52.604;10.078;2023-03-01T09:39:52;102567.28;;;1.41;87.19
50103;BME280;35993;52.604;10.078;2023-03-01T09:42:17;102561.25;;;1.51;86.87
50103;BME280;35993;52.604;10.078;2023-03-01T09:47:20;102560.47;;;1.61;85.54
50103;BME280;35993;52.604;10.078;2023-03-01T09:50:02;102552.72;;;1.70;85.53
50103;BME280;35993;52.604;10.078;2023-03-01T09:52:38;102548.97;;;1.72;85.19
50103;BME280;35993;52.604;10.078;2023-03-01T09:55:27;102554.81;;;1.77;84.93
50103;BME280;35993;52.604;10.078;2023-03-01T09:58:26;102551.13;;;1.91;83.82
50103;BME280;35993;52.604;10.078;2023-03-01T10:00:56;102546.91;;;2.00;81.30
50103;BME280;35993;52.604;10.078;2023-03-01T10:03:27;102544.41;;;2.10;81.03
50103;BME280;35993;52.604;10.078;2023-03-01T10:06:08;102542.72;;;2.20;80.75
50103;BME280;35993;52.604;10.078;2023-03-01T10:08:55;102540.94;;;2.32;80.29
50103;BME280;35993;52.604;10.078;2023-03-01T10:11:33;102543.75;;;2.42;80.27
50103;BME280;35993;52.604;10.078;2023-03-01T10:14:12;102542.09;;;2.52;81.00
50103;BME280;35993;52.604;10.078;2023-03-01T10:19:51;102537.47;;;2.66;80.99
50103;BME280;35993;52.604;10.078;2023-03-01T10:22:29;102546.50;;;2.76;80.74
50103;BME280;35993;52.604;10.078;2023-03-01T10:24:58;102539.94;;;2.80;79.95
50103;BME280;35993;52.604;10.078;2023-03-01T10:27:29;102535.28;;;2.82;79.53
50103;BME280;35993;52.604;10.078;2023-03-01T10:30:17;102535.91;;;2.86;78.29
50103;BME280;35993;52.604;10.078;2023-03-01T10:32:46;102539.19;;;3.12;77.38
50103;BME280;35993;52.604;10.078;2023-03-01T10:35:28;102534.19;;;3.19;76.37
50103;BME280;35993;52.604;10.078;2023-03-01T10:40:29;102533.56;;;3.38;75.40
50103;BME280;35993;52.604;10.078;2023-03-01T10:42:57;102525.38;;;3.39;75.84
50103;BME280;35993;52.604;10.078;2023-03-01T10:45:32;102520.63;;;3.32;74.82
50103;BME280;35993;52.604;10.078;2023-03-01T10:48:15;102510.25;;;3.38;74.50
50103;BME280;35993;52.604;10.078;2023-03-01T10:50:45;102512.66;;;3.41;73.38
50103;BME280;35993;52.604;10.078;2023-03-01T10:53:25;102503.53;;;3.44;73.59
50103;BME280;35993;52.604;10.078;2023-03-01T10:56:05;102509.09;;;3.52;72.29
50103;BME280;35993;52.604;10.078;2023-03-01T10:58:33;102500.44;;;3.49;70.06
50103;BME280;35993;52.604;10.078;2023-03-01T11:06:28;102490.47;;;3.72;68.11
50103;BME280;35993;52.604;10.078;2023-03-01T11:08:54;102493.53;;;3.79;68.18
50103;BME280;35993;52.604;10.078;2023-03-01T11:11:34;102476.31;;;3.81;67.17
50103;BME280;35993;52.604;10.078;2023-03-01T11:14:20;102478.81;;;3.94;67.91
50103;BME280;35993;52.604;10.078;2023-03-01T11:16:49;102485.28;;;3.91;68.58
50103;BME280;35993;52.604;10.078;2023-03-01T11:19:23;102483.56;;;3.90;68.02
50103;BME280;35993;52.604;10.078;2023-03-01T11:22:10;102487.25;;;3.89;67.44
50103;BME280;35993;52.604;10.078;2023-03-01T11:24:49;102482.66;;;4.01;67.24
50103;BME280;35993;52.604;10.078;2023-03-01T11:27:34;102468.47;;;4.10;66.16
50103;BME280;35993;52.604;10.078;2023-03-01T11:35:23;102470.22;;;4.21;63.91
50103;BME280;35993;52.604;10.078;2023-03-01T11:40:27;102459.06;;;4.26;63.62
50103;BME280;35993;52.604;10.078;2023-03-01T11:46:06;102469.41;;;4.31;63.75
50103;BME280;35993;52.604;10.078;2023-03-01T11:51:23;102448.47;;;4.55;63.01
50103;BME280;35993;52.604;10.078;2023-03-01T12:02:13;102419.78;;;4.66;60.84
50103;BME280;35993;52.604;10.078;2023-03-01T12:05:05;102417.09;;;4.75;59.98
50103;BME280;35993;52.604;10.078;2023-03-01T12:13:10;102401.41;;;4.81;58.01
50103;BME280;35993;52.604;10.078;2023-03-01T12:18:29;102406.97;;;4.89;56.17
50103;BME280;35993;52.604;10.078;2023-03-01T12:21:05;102393.22;;;4.92;56.50
50103;BME280;35993;52.604;10.078;2023-03-01T12:26:28;102399.09;;;5.17;56.26
50103;BME280;35993;52.604;10.078;2023-03-01T12:32:04;102376.81;;;5.15;56.62
50103;BME280;35993;52.604;10.078;2023-03-01T12:34:47;102373.72;;;5.19;56.50
50103;BME280;35993;52.604;10.078;2023-03-01T12:37:25;102379.91;;;5.10;56.82
50103;BME280;35993;52.604;10.078;2023-03-01T12:47:58;102354.44;;;5.34;56.55
50103;BME280;35993;52.604;10.078;2023-03-01T12:50:44;102353.88;;;5.40;56.61
50103;BME280;35993;52.604;10.078;2023-03-01T12:53:30;102346.06;;;5.47;55.72
50103;BME280;35993;52.604;10.078;2023-03-01T12:56:12;102349.91;;;5.44;56.15
50103;BME280;35993;52.604;10.078;2023-03-01T13:09:46;102337.16;;;5.46;55.03
50103;BME280;35993;52.604;10.078;2023-03-01T13:18:30;102315.81;;;5.72;53.39
50103;BME280;35993;52.604;10.078;2023-03-01T13:30:58;102307.91;;;5.61;53.71
50103;BME280;35993;52.604;10.078;2023-03-01T13:35:52;102299.50;;;5.74;52.48
50103;BME280;35993;52.604;10.078;2023-03-01T13:41:24;102307.25;;;5.87;52.78
50103;BME280;35993;52.604;10.078;2023-03-01T13:43:59;102302.03;;;5.85;53.69
50103;BME280;35993;52.604;10.078;2023-03-01T13:46:24;102297.78;;;5.83;53.84
50103;BME280;35993;52.604;10.078;2023-03-01T13:48:53;102290.69;;;5.82;53.26
50103;BME280;35993;52.604;10.078;2023-03-01T13:51:23;102287.41;;;5.88;53.32
50103;BME280;35993;52.604;10.078;2023-03-01T13:53:52;102289.25;;;5.87;51.99
50103;BME280;35993;52.604;10.078;2023-03-01T13:56:27;102283.16;;;5.85;51.68
50103;BME280;35993;52.604;10.078;2023-03-01T14:01:24;102270.50;;;5.96;49.60
50103;BME280;35993;52.604;10.078;2023-03-01T14:03:50;102263.72;;;6.01;49.04
50103;BME280;35993;52.604;10.078;2023-03-01T14:06:20;102261.09;;;6.10;48.77
50103;BME280;35993;52.604;10.078;2023-03-01T14:08:48;102272.19;;;6.06;49.76
50103;BME280;35993;52.604;10.078;2023-03-01T14:14:23;102271.13;;;6.17;49.44
50103;BME280;35993;52.604;10.078;2023-03-01T14:19:26;102265.34;;;6.12;50.36
50103;BME280;35993;52.604;10.078;2023-03-01T14:22:00;102262.25;;;6.07;49.80
50103;BME280;35993;52.604;10.078;2023-03-01T14:24:27;102265.94;;;6.06;50.30
50103;BME280;35993;52.604;10.078;2023-03-01T14:26:56;102261.41;;;5.97;50.44
50103;BME280;35993;52.604;10.078;2023-03-01T14:29:55;102256.03;;;6.06;49.82
50103;BME280;35993;52.604;10.078;2023-03-01T14:32:31;102245.09;;;6.08;48.30